createdAt,value
2019-05-14T00:00:13.500Z,0.00
2019-05-14T00:01:13.496Z,0.00
2019-05-14T00:02:13.492Z,0.00
2019-05-14T00:03:13.483Z,0.00
2019-05-14T00:04:13.472Z,0.00
2019-05-14T00:05:13.463Z,0.00
2019-05-14T00:06:13.455Z,0.00
2019-05-14T00:07:13.447Z,0.00
2019-05-14T00:08:13.450Z,0.00
2019-05-14T00:09:13.434Z,0.00
2019-05-14T00:10:13.428Z,0.00
2019-05-14T00:11:13.417Z,0.00
2019-05-14T00:12:13.413Z,0.00
2019-05-14T00:13:13.405Z,0.00
2019-05-14T00:14:13.389Z,0.00
2019-05-14T00:15:13.383Z,0.00
2019-05-14T00:16:13.377Z,0.00
2019-05-14T00:17:13.370Z,0.00
2019-05-14T00:18:13.355Z,0.00
2019-05-14T00:19:13.351Z,0.00
2019-05-14T00:20:13.583Z,0.00
2019-05-14T00:21:13.340Z,0.00
2019-05-14T00:22:13.329Z,0.00
2019-05-14T00:23:13.324Z,0.00
2019-05-14T00:24:13.316Z,0.00
2019-05-14T00:25:13.303Z,0.00
2019-05-14T00:26:13.294Z,0.00
2019-05-14T00:27:13.286Z,0.00
2019-05-14T00:28:13.282Z,0.00
2019-05-14T00:29:13.272Z,0.00
2019-05-14T00:30:13.271Z,0.00
2019-05-14T00:31:13.253Z,0.00
2019-05-14T00:32:13.242Z,0.00
2019-05-14T00:33:13.241Z,0.00
2019-05-14T00:34:13.231Z,0.00
2019-05-14T00:35:13.226Z,0.00
2019-05-14T00:36:13.216Z,0.00
2019-05-14T00:37:13.204Z,0.00
2019-05-14T00:38:13.196Z,0.00
2019-05-14T00:39:13.188Z,0.00
2019-05-14T00:40:13.177Z,0.00
2019-05-14T00:41:13.177Z,0.00
2019-05-14T00:42:13.168Z,0.00
2019-05-14T00:43:13.160Z,0.00
2019-05-14T00:44:13.618Z,0.00
2019-05-14T00:45:13.138Z,0.00
2019-05-14T00:46:13.131Z,0.00
2019-05-14T00:47:13.129Z,0.00
2019-05-14T00:48:13.118Z,0.00
2019-05-14T00:49:13.106Z,0.00
2019-05-14T00:50:13.098Z,0.00
2019-05-14T00:51:13.088Z,0.00
2019-05-14T00:52:13.079Z,0.00
2019-05-14T00:53:13.075Z,0.00
2019-05-14T00:54:13.067Z,0.00
2019-05-14T00:55:13.060Z,0.00
2019-05-14T00:56:13.049Z,0.00
2019-05-14T00:57:13.038Z,0.00
2019-05-14T00:58:13.033Z,0.00
2019-05-14T00:59:13.024Z,0.00
2019-05-14T01:00:13.014Z,0.00
2019-05-14T01:01:13.011Z,0.00
2019-05-14T01:02:13.002Z,0.00
2019-05-14T01:03:12.990Z,0.00
2019-05-14T01:04:12.982Z,0.00
2019-05-14T01:05:12.976Z,0.00
2019-05-14T01:06:12.970Z,0.00
2019-05-14T01:07:12.958Z,0.00
2019-05-14T01:08:12.949Z,0.00
2019-05-14T01:09:12.938Z,0.00
2019-05-14T01:10:12.929Z,0.00
2019-05-14T01:11:12.920Z,0.00
2019-05-14T01:12:12.911Z,0.00
2019-05-14T01:13:12.907Z,0.00
2019-05-14T01:14:12.899Z,0.00
2019-05-14T01:15:14.208Z,0.00
2019-05-14T01:16:12.884Z,0.00
2019-05-14T01:17:12.873Z,0.00
2019-05-14T01:18:12.864Z,0.00
2019-05-14T01:19:12.858Z,0.00
2019-05-14T01:20:12.850Z,0.00
2019-05-14T01:21:12.839Z,0.00
2019-05-14T01:22:12.844Z,0.00
2019-05-14T01:23:12.818Z,0.00
2019-05-14T01:24:12.829Z,0.00
2019-05-14T01:25:12.806Z,0.00
2019-05-14T01:26:12.796Z,0.00
2019-05-14T01:27:12.790Z,0.00
2019-05-14T01:28:12.778Z,0.00
2019-05-14T01:29:12.768Z,0.00
2019-05-14T01:30:12.757Z,0.00
2019-05-14T01:31:14.794Z,0.00
2019-05-14T01:32:12.743Z,0.00
2019-05-14T01:33:12.740Z,0.00
2019-05-14T01:34:12.731Z,0.00
2019-05-14T01:35:12.720Z,0.00
2019-05-14T01:36:12.710Z,0.00
2019-05-14T01:37:12.705Z,0.00
2019-05-14T01:38:12.697Z,0.00
2019-05-14T01:39:12.685Z,0.00
2019-05-14T01:40:12.677Z,0.00
2019-05-14T01:41:12.663Z,0.00
2019-05-14T01:42:12.809Z,0.00
2019-05-14T01:43:12.650Z,0.00
2019-05-14T01:44:12.641Z,0.00
2019-05-14T01:45:23.921Z,0.00
2019-05-14T01:46:12.628Z,0.00
2019-05-14T01:47:12.879Z,0.00
2019-05-14T01:48:12.608Z,0.00
2019-05-14T01:49:12.595Z,0.00
2019-05-14T01:50:12.586Z,0.00
2019-05-14T01:51:12.582Z,0.00
2019-05-14T01:52:12.573Z,0.00
2019-05-14T01:53:12.559Z,0.00
2019-05-14T01:54:12.551Z,0.00
2019-05-14T01:55:12.546Z,0.00
2019-05-14T01:56:12.536Z,0.00
2019-05-14T01:57:12.532Z,0.00
2019-05-14T01:58:12.522Z,0.00
2019-05-14T01:59:12.515Z,0.00
2019-05-14T02:00:12.506Z,0.00
2019-05-14T02:01:12.496Z,0.00
2019-05-14T02:02:12.493Z,0.00
2019-05-14T02:03:12.473Z,0.00
2019-05-14T02:04:12.465Z,0.00
2019-05-14T02:05:12.662Z,0.00
2019-05-14T02:06:12.451Z,0.00
2019-05-14T02:07:15.943Z,0.00
2019-05-14T02:08:12.427Z,0.00
2019-05-14T02:09:12.424Z,0.00
2019-05-14T02:10:12.415Z,0.00
2019-05-14T02:11:12.409Z,0.00
2019-05-14T02:12:12.401Z,0.00
2019-05-14T02:13:12.437Z,0.00
2019-05-14T02:14:12.379Z,0.00
2019-05-14T02:15:12.371Z,0.00
2019-05-14T02:16:12.996Z,0.00
2019-05-14T02:17:12.653Z,0.00
2019-05-14T02:18:12.357Z,0.00
2019-05-14T02:19:12.336Z,0.00
2019-05-14T02:20:12.766Z,0.00
2019-05-14T02:21:12.312Z,0.00
2019-05-14T02:22:12.305Z,0.00
2019-05-14T02:23:12.301Z,0.00
2019-05-14T02:24:12.291Z,0.00
2019-05-14T02:25:12.279Z,0.00
2019-05-14T02:26:12.270Z,0.00
2019-05-14T02:27:12.535Z,0.00
2019-05-14T02:28:12.255Z,0.00
2019-05-14T02:29:12.630Z,0.00
2019-05-14T02:30:12.242Z,0.00
2019-05-14T02:31:12.231Z,0.00
2019-05-14T02:32:12.222Z,0.00
2019-05-14T02:33:12.210Z,0.00
2019-05-14T02:34:12.206Z,0.00
2019-05-14T02:35:12.188Z,0.00
2019-05-14T02:36:12.179Z,0.00
2019-05-14T02:37:12.176Z,0.00
2019-05-14T02:38:12.172Z,0.00
2019-05-14T02:39:12.158Z,0.00
2019-05-14T02:40:12.157Z,0.00
2019-05-14T02:41:12.142Z,0.00
2019-05-14T02:42:12.131Z,0.00
2019-05-14T02:43:12.138Z,0.00
2019-05-14T02:44:12.116Z,0.00
2019-05-14T02:45:12.103Z,0.00
2019-05-14T02:46:17.170Z,0.00
2019-05-14T02:47:12.083Z,0.00
2019-05-14T02:48:12.071Z,0.00
2019-05-14T02:49:12.070Z,0.00
2019-05-14T02:50:12.057Z,0.00
2019-05-14T02:51:12.051Z,0.00
2019-05-14T02:52:12.042Z,0.00
2019-05-14T02:53:12.030Z,0.00
2019-05-14T02:54:12.019Z,0.00
2019-05-14T02:55:12.016Z,0.00
2019-05-14T02:56:12.005Z,0.00
2019-05-14T02:57:11.994Z,0.00
2019-05-14T02:58:11.983Z,0.00
2019-05-14T02:59:11.972Z,0.00
2019-05-14T03:00:11.961Z,0.00
2019-05-14T03:01:11.970Z,0.00
2019-05-14T03:02:11.948Z,0.00
2019-05-14T03:03:11.941Z,0.00
2019-05-14T03:04:11.934Z,0.00
2019-05-14T03:05:11.923Z,0.00
2019-05-14T03:06:11.908Z,0.00
2019-05-14T03:07:11.901Z,0.00
2019-05-14T03:08:11.893Z,0.00
2019-05-14T03:09:11.884Z,0.00
2019-05-14T03:10:11.879Z,0.00
2019-05-14T03:11:11.865Z,0.00
2019-05-14T03:12:11.855Z,0.00
2019-05-14T03:13:11.852Z,0.00
2019-05-14T03:14:11.841Z,0.00
2019-05-14T03:15:11.829Z,0.00
2019-05-14T03:16:26.110Z,0.00
2019-05-14T03:17:11.807Z,0.00
2019-05-14T03:18:11.798Z,0.00
2019-05-14T03:19:11.793Z,0.00
2019-05-14T03:20:11.778Z,0.00
2019-05-14T03:21:11.775Z,0.00
2019-05-14T03:22:11.776Z,0.00
2019-05-14T03:23:18.234Z,0.00
2019-05-14T03:24:11.763Z,0.00
2019-05-14T03:25:11.741Z,0.00
2019-05-14T03:26:11.727Z,0.00
2019-05-14T03:27:11.723Z,0.00
2019-05-14T03:28:11.711Z,0.00
2019-05-14T03:29:11.702Z,0.00
2019-05-14T03:30:13.355Z,0.00
2019-05-14T03:31:13.043Z,0.00
2019-05-14T03:32:13.445Z,0.00
2019-05-14T03:33:13.256Z,5.63
2019-05-14T03:34:13.495Z,5.63
2019-05-14T03:35:13.679Z,5.63
2019-05-14T03:36:18.031Z,5.63
2019-05-14T03:37:13.311Z,5.63
2019-05-14T03:38:11.631Z,5.63
2019-05-14T03:39:11.608Z,5.63
2019-05-14T03:40:11.596Z,5.63
2019-05-14T03:41:14.052Z,11.25
2019-05-14T03:42:11.588Z,11.25
2019-05-14T03:43:11.576Z,11.25
2019-05-14T03:44:11.560Z,11.25
2019-05-14T03:45:11.562Z,11.25
2019-05-14T03:46:11.546Z,16.88
2019-05-14T03:47:11.544Z,16.88
2019-05-14T03:48:11.532Z,16.88
2019-05-14T03:49:11.511Z,16.88
2019-05-14T03:50:11.500Z,16.88
2019-05-14T03:51:11.496Z,22.50
2019-05-14T03:52:11.483Z,22.50
2019-05-14T03:53:11.491Z,22.50
2019-05-14T03:54:12.946Z,22.50
2019-05-14T03:55:11.493Z,28.13
2019-05-14T03:56:11.454Z,28.13
2019-05-14T03:57:11.443Z,28.13
2019-05-14T03:58:11.430Z,33.75
2019-05-14T03:59:11.542Z,33.75
2019-05-14T04:00:11.420Z,33.75
2019-05-14T04:01:11.403Z,33.75
2019-05-14T04:02:11.400Z,39.38
2019-05-14T04:03:11.383Z,39.38
2019-05-14T04:04:11.372Z,45.00
2019-05-14T04:05:11.373Z,45.00
2019-05-14T04:06:11.366Z,45.00
2019-05-14T04:07:11.355Z,50.63
2019-05-14T04:08:11.340Z,50.63
2019-05-14T04:09:11.329Z,56.25
2019-05-14T04:10:11.317Z,61.88
2019-05-14T04:11:11.313Z,67.50
2019-05-14T04:12:11.301Z,73.13
2019-05-14T04:13:11.298Z,78.75
2019-05-14T04:14:11.288Z,84.38
2019-05-14T04:15:11.286Z,78.75
2019-05-14T04:16:11.264Z,78.75
2019-05-14T04:17:15.426Z,78.75
2019-05-14T04:18:11.256Z,78.75
2019-05-14T04:19:11.238Z,78.75
2019-05-14T04:20:11.258Z,84.38
2019-05-14T04:21:11.223Z,84.38
2019-05-14T04:22:11.207Z,84.38
2019-05-14T04:23:11.214Z,90.00
2019-05-14T04:24:11.186Z,90.00
2019-05-14T04:25:11.478Z,90.00
2019-05-14T04:26:11.193Z,90.00
2019-05-14T04:27:13.035Z,95.63
2019-05-14T04:28:11.159Z,101.25
2019-05-14T04:29:11.149Z,101.25
2019-05-14T04:30:11.136Z,106.88
2019-05-14T04:31:11.134Z,112.50
2019-05-14T04:32:11.368Z,112.50
2019-05-14T04:33:11.108Z,112.50
2019-05-14T04:34:11.099Z,112.50
2019-05-14T04:35:11.087Z,118.13
2019-05-14T04:36:11.079Z,118.13
2019-05-14T04:37:11.071Z,123.75
2019-05-14T04:38:11.062Z,140.63
2019-05-14T04:39:11.056Z,168.75
2019-05-14T04:40:11.055Z,191.25
2019-05-14T04:41:11.033Z,236.25
2019-05-14T04:42:11.025Z,247.50
2019-05-14T04:43:11.018Z,315.00
2019-05-14T04:44:11.011Z,337.50
2019-05-14T04:45:11.560Z,360.00
2019-05-14T04:46:11.104Z,343.13
2019-05-14T04:47:27.931Z,365.63
2019-05-14T04:48:27.254Z,343.13
2019-05-14T04:49:10.969Z,326.25
2019-05-14T04:50:11.107Z,320.63
2019-05-14T04:51:10.961Z,315.00
2019-05-14T04:52:10.941Z,303.75
2019-05-14T04:53:10.942Z,286.88
2019-05-14T04:54:10.922Z,264.38
2019-05-14T04:55:10.922Z,275.63
2019-05-14T04:56:10.909Z,275.63
2019-05-14T04:57:10.966Z,281.25
2019-05-14T04:58:10.899Z,275.63
2019-05-14T04:59:10.896Z,281.25
2019-05-14T05:00:12.249Z,275.63
2019-05-14T05:01:10.876Z,292.50
2019-05-14T05:02:10.876Z,320.63
2019-05-14T05:03:12.772Z,371.25
2019-05-14T05:04:10.858Z,450.00
2019-05-14T05:05:10.840Z,450.00
2019-05-14T05:06:10.834Z,478.13
2019-05-14T05:07:10.829Z,556.88
2019-05-14T05:08:14.172Z,534.38
2019-05-14T05:09:10.831Z,461.25
2019-05-14T05:10:10.817Z,348.75
2019-05-14T05:11:10.806Z,337.50
2019-05-14T05:12:10.796Z,669.38
2019-05-14T05:13:10.787Z,787.50
2019-05-14T05:14:10.782Z,787.50
2019-05-14T05:15:10.787Z,736.88
2019-05-14T05:16:10.778Z,607.50
2019-05-14T05:17:10.769Z,540.00
2019-05-14T05:18:10.761Z,511.88
2019-05-14T05:19:10.769Z,585.00
2019-05-14T05:20:10.743Z,641.25
2019-05-14T05:21:10.742Z,742.50
2019-05-14T05:22:10.738Z,793.13
2019-05-14T05:23:10.734Z,866.25
2019-05-14T05:24:10.729Z,888.75
2019-05-14T05:25:10.720Z,950.63
2019-05-14T05:26:10.714Z,967.50
2019-05-14T05:27:10.712Z,939.38
2019-05-14T05:28:10.706Z,1023.75
2019-05-14T05:29:10.709Z,1096.88
2019-05-14T05:30:10.706Z,1209.38
2019-05-14T05:31:10.696Z,1203.75
2019-05-14T05:32:10.692Z,1192.50
2019-05-14T05:33:10.684Z,1158.75
2019-05-14T05:34:10.681Z,1108.13
2019-05-14T05:35:10.682Z,1113.75
2019-05-14T05:36:10.678Z,1125.00
2019-05-14T05:37:10.671Z,1175.63
2019-05-14T05:38:10.668Z,1186.88
2019-05-14T05:39:10.669Z,1226.25
2019-05-14T05:40:10.667Z,1198.13
2019-05-14T05:41:10.668Z,1220.63
2019-05-14T05:42:10.668Z,1113.75
2019-05-14T05:43:10.666Z,1023.75
2019-05-14T05:44:10.671Z,1080.00
2019-05-14T05:45:10.658Z,1113.75
2019-05-14T05:46:10.657Z,1102.50
2019-05-14T05:47:10.655Z,1074.38
2019-05-14T05:48:10.651Z,1113.75
2019-05-14T05:49:10.656Z,1276.88
2019-05-14T05:50:10.655Z,1282.50
2019-05-14T05:51:10.648Z,1361.25
2019-05-14T05:52:10.648Z,1395.00
2019-05-14T05:53:10.651Z,1434.38
2019-05-14T05:54:10.656Z,1434.38
2019-05-14T05:55:10.654Z,1440.00
2019-05-14T05:56:10.651Z,1445.63
2019-05-14T05:57:10.648Z,1473.75
2019-05-14T05:58:10.649Z,1479.38
2019-05-14T05:59:10.648Z,1501.88
2019-05-14T06:00:10.645Z,1513.13
2019-05-14T06:01:10.652Z,1513.13
2019-05-14T06:02:10.652Z,1524.38
2019-05-14T06:03:11.345Z,1530.00
2019-05-14T06:04:10.655Z,1530.00
2019-05-14T06:05:10.653Z,1518.75
2019-05-14T06:06:13.462Z,1558.13
2019-05-14T06:07:10.661Z,1575.00
2019-05-14T06:08:10.659Z,1597.50
2019-05-14T06:09:10.659Z,1518.75
2019-05-14T06:10:10.660Z,1597.50
2019-05-14T06:11:10.659Z,1608.75
2019-05-14T06:12:10.663Z,1625.63
2019-05-14T06:13:13.816Z,1642.50
2019-05-14T06:14:10.673Z,1653.75
2019-05-14T06:15:14.098Z,1665.00
2019-05-14T06:16:10.676Z,1648.13
2019-05-14T06:17:10.674Z,1659.38
2019-05-14T06:18:17.822Z,1653.75
2019-05-14T06:19:10.684Z,1653.75
2019-05-14T06:20:10.684Z,1507.50
2019-05-14T06:21:10.696Z,1473.75
2019-05-14T06:22:10.693Z,1636.88
2019-05-14T06:23:10.695Z,1698.75
2019-05-14T06:24:10.696Z,1715.63
2019-05-14T06:25:11.534Z,1732.50
2019-05-14T06:26:11.856Z,1721.25
2019-05-14T06:27:10.707Z,1732.50
2019-05-14T06:28:10.709Z,1732.50
2019-05-14T06:29:10.710Z,1710.00
2019-05-14T06:30:10.711Z,1665.00
2019-05-14T06:31:10.716Z,1125.00
2019-05-14T06:32:10.717Z,1670.63
2019-05-14T06:33:10.724Z,1659.38
2019-05-14T06:34:10.729Z,1721.25
2019-05-14T06:35:10.737Z,1811.25
2019-05-14T06:36:14.379Z,1704.38
2019-05-14T06:37:10.738Z,1721.25
2019-05-14T06:38:10.739Z,1783.13
2019-05-14T06:39:10.747Z,1788.75
2019-05-14T06:40:10.759Z,1642.50
2019-05-14T06:41:10.751Z,1755.00
2019-05-14T06:42:10.755Z,1828.13
2019-05-14T06:43:10.756Z,1749.38
2019-05-14T06:44:10.755Z,1828.13
2019-05-14T06:45:10.764Z,1614.38
2019-05-14T06:46:10.766Z,1783.13
2019-05-14T06:47:10.776Z,1800.00
2019-05-14T06:48:26.373Z,1833.75
2019-05-14T06:49:10.771Z,1901.25
2019-05-14T06:50:10.783Z,1816.88
2019-05-14T06:51:10.795Z,1546.88
2019-05-14T06:52:10.781Z,1839.38
2019-05-14T06:53:10.790Z,1974.38
2019-05-14T06:54:10.793Z,2002.50
2019-05-14T06:55:10.794Z,1996.88
2019-05-14T06:56:10.795Z,2041.88
2019-05-14T06:57:10.803Z,2013.75
2019-05-14T06:58:10.805Z,2047.50
2019-05-14T06:59:10.809Z,2036.25
2019-05-14T07:00:10.811Z,2008.13
2019-05-14T07:01:10.810Z,2013.75
2019-05-14T07:02:10.815Z,1996.88
2019-05-14T07:03:10.821Z,1968.75
2019-05-14T07:04:10.822Z,1788.75
2019-05-14T07:05:10.835Z,1642.50
2019-05-14T07:06:10.835Z,1738.13
2019-05-14T07:07:10.839Z,1878.75
2019-05-14T07:08:10.844Z,1558.13
2019-05-14T07:09:10.841Z,1524.38
2019-05-14T07:10:10.847Z,2075.63
2019-05-14T07:11:10.857Z,1603.13
2019-05-14T07:12:10.859Z,2008.13
2019-05-14T07:13:10.858Z,2070.00
2019-05-14T07:14:11.605Z,1946.25
2019-05-14T07:15:10.870Z,1974.38
2019-05-14T07:16:10.874Z,2030.63
2019-05-14T07:17:10.881Z,2070.00
2019-05-14T07:18:10.885Z,2036.25
2019-05-14T07:19:10.889Z,2036.25
2019-05-14T07:20:10.896Z,2086.88
2019-05-14T07:21:10.899Z,1996.88
2019-05-14T07:22:10.898Z,2131.88
2019-05-14T07:23:10.900Z,2103.75
2019-05-14T07:24:10.905Z,2143.13
2019-05-14T07:25:10.913Z,2115.00
2019-05-14T07:26:10.915Z,2092.50
2019-05-14T07:27:10.916Z,2199.38
2019-05-14T07:28:10.919Z,2120.63
2019-05-14T07:29:11.723Z,1991.25
2019-05-14T07:30:10.934Z,1940.63
2019-05-14T07:31:10.943Z,1839.38
2019-05-14T07:32:10.945Z,1940.63
2019-05-14T07:33:10.949Z,2070.00
2019-05-14T07:34:10.951Z,2300.63
2019-05-14T07:35:10.956Z,2295.00
2019-05-14T07:36:10.961Z,2075.63
2019-05-14T07:37:10.968Z,1980.00
2019-05-14T07:38:10.978Z,2165.63
2019-05-14T07:39:10.977Z,2002.50
2019-05-14T07:40:10.981Z,2587.50
2019-05-14T07:41:11.002Z,3003.75
2019-05-14T07:42:10.988Z,3256.88
2019-05-14T07:43:10.997Z,3481.88
2019-05-14T07:44:11.000Z,2829.38
2019-05-14T07:45:10.998Z,2401.88
2019-05-14T07:46:11.004Z,2705.63
2019-05-14T07:47:11.012Z,2908.13
2019-05-14T07:48:11.015Z,2469.38
2019-05-14T07:49:11.897Z,2846.25
2019-05-14T07:50:11.028Z,3054.38
2019-05-14T07:51:11.033Z,3296.25
2019-05-14T07:52:11.038Z,3802.50
2019-05-14T07:53:11.038Z,3830.63
2019-05-14T07:54:11.043Z,3307.50
2019-05-14T07:55:11.046Z,2958.75
2019-05-14T07:56:11.050Z,3144.38
2019-05-14T07:57:11.062Z,2851.88
2019-05-14T07:58:11.084Z,3268.13
2019-05-14T07:59:11.069Z,4106.25
2019-05-14T08:00:11.070Z,4106.25
2019-05-14T08:01:11.084Z,3909.38
2019-05-14T08:02:12.808Z,3588.75
2019-05-14T08:03:11.094Z,3279.38
2019-05-14T08:04:11.876Z,3268.13
2019-05-14T08:05:11.102Z,3206.25
2019-05-14T08:06:11.113Z,3206.25
2019-05-14T08:07:11.116Z,2992.50
2019-05-14T08:08:11.124Z,3273.75
2019-05-14T08:09:11.122Z,3273.75
2019-05-14T08:10:11.125Z,3380.63
2019-05-14T08:11:11.135Z,3459.38
2019-05-14T08:12:12.732Z,3605.63
2019-05-14T08:13:11.151Z,4072.50
2019-05-14T08:14:11.155Z,3931.88
2019-05-14T08:15:17.654Z,3487.50
2019-05-14T08:16:11.164Z,3577.50
2019-05-14T08:17:11.178Z,3459.38
2019-05-14T08:18:11.179Z,3408.75
2019-05-14T08:19:24.463Z,3335.63
2019-05-14T08:20:11.191Z,3611.25
2019-05-14T08:21:11.194Z,3763.13
2019-05-14T08:22:11.198Z,3740.63
2019-05-14T08:23:11.206Z,3605.63
2019-05-14T08:24:11.213Z,3735.00
2019-05-14T08:25:11.220Z,4623.75
2019-05-14T08:26:11.230Z,5383.13
2019-05-14T08:27:11.240Z,4595.63
2019-05-14T08:28:11.244Z,4134.38
2019-05-14T08:29:11.249Z,4173.75
2019-05-14T08:30:11.258Z,4353.75
2019-05-14T08:31:11.267Z,4533.75
2019-05-14T08:32:11.278Z,4376.25
2019-05-14T08:33:11.282Z,4190.63
2019-05-14T08:34:11.293Z,4230.00
2019-05-14T08:35:11.300Z,4393.13
2019-05-14T08:36:11.304Z,4033.13
2019-05-14T08:37:11.317Z,3330.00
2019-05-14T08:38:12.227Z,2829.38
2019-05-14T08:39:11.337Z,3673.13
2019-05-14T08:40:11.347Z,3751.88
2019-05-14T08:41:11.355Z,3661.88
2019-05-14T08:42:11.376Z,3847.50
2019-05-14T08:43:11.373Z,3774.38
2019-05-14T08:44:11.383Z,3965.63
2019-05-14T08:45:13.921Z,3971.25
2019-05-14T08:46:11.408Z,4061.25
2019-05-14T08:47:11.413Z,4117.50
2019-05-14T08:48:11.422Z,4190.63
2019-05-14T08:49:11.443Z,4021.88
2019-05-14T08:50:11.450Z,3954.38
2019-05-14T08:51:11.456Z,4038.75
2019-05-14T08:52:11.465Z,4201.88
2019-05-14T08:53:11.471Z,4185.00
2019-05-14T08:54:11.482Z,4179.38
2019-05-14T08:55:13.916Z,4303.13
2019-05-14T08:56:12.299Z,4213.13
2019-05-14T08:57:11.590Z,4089.38
2019-05-14T08:58:13.921Z,4010.63
2019-05-14T08:59:11.544Z,4027.50
2019-05-14T09:00:14.365Z,4207.50
2019-05-14T09:01:11.562Z,4471.88
2019-05-14T09:02:11.573Z,4741.88
2019-05-14T09:03:11.589Z,4753.13
2019-05-14T09:04:11.599Z,4730.63
2019-05-14T09:05:11.610Z,4764.38
2019-05-14T09:06:11.620Z,4781.25
2019-05-14T09:07:11.630Z,5000.63
2019-05-14T09:08:11.642Z,5411.25
2019-05-14T09:09:11.658Z,5343.75
2019-05-14T09:10:11.671Z,4876.88
2019-05-14T09:11:11.687Z,4128.75
2019-05-14T09:12:12.694Z,3836.25
2019-05-14T09:13:11.708Z,3858.75
2019-05-14T09:14:11.723Z,3780.00
2019-05-14T09:15:11.732Z,3791.25
2019-05-14T09:16:11.744Z,3763.13
2019-05-14T09:17:14.824Z,3706.88
2019-05-14T09:18:12.083Z,3729.38
2019-05-14T09:19:11.785Z,3763.13
2019-05-14T09:20:12.064Z,3768.75
2019-05-14T09:21:11.814Z,3746.25
2019-05-14T09:22:11.827Z,3774.38
2019-05-14T09:23:11.847Z,3796.88
2019-05-14T09:24:11.855Z,3825.00
2019-05-14T09:25:11.864Z,3667.50
2019-05-14T09:26:11.878Z,3481.88
2019-05-14T09:27:11.890Z,3487.50
2019-05-14T09:28:11.907Z,3076.88
2019-05-14T09:29:22.500Z,3493.13
2019-05-14T09:30:11.933Z,3510.00
2019-05-14T09:31:11.944Z,3566.25
2019-05-14T09:32:11.954Z,3628.13
2019-05-14T09:33:11.964Z,3746.25
2019-05-14T09:34:12.015Z,3583.13
2019-05-14T09:35:11.994Z,1186.88
2019-05-14T09:36:19.354Z,2334.38
2019-05-14T09:37:12.023Z,2778.75
2019-05-14T09:38:12.025Z,3841.88
2019-05-14T09:39:12.377Z,3780.00
2019-05-14T09:40:12.052Z,3881.25
2019-05-14T09:41:15.173Z,3420.00
2019-05-14T09:42:12.082Z,1119.38
2019-05-14T09:43:12.094Z,3560.63
2019-05-14T09:44:12.105Z,4123.13
2019-05-14T09:45:12.112Z,961.88
2019-05-14T09:46:12.124Z,742.50
2019-05-14T09:47:12.135Z,720.00
2019-05-14T09:48:12.149Z,1265.63
2019-05-14T09:49:12.160Z,984.38
2019-05-14T09:50:19.351Z,3729.38
2019-05-14T09:51:12.176Z,3735.00
2019-05-14T09:52:12.187Z,3757.50
2019-05-14T09:53:12.199Z,1125.00
2019-05-14T09:54:12.209Z,3858.75
2019-05-14T09:55:12.223Z,922.50
2019-05-14T09:56:12.230Z,1586.25
2019-05-14T09:57:12.242Z,3712.50
2019-05-14T09:58:12.249Z,3515.63
2019-05-14T09:59:12.257Z,950.63
2019-05-14T10:00:14.548Z,945.00
2019-05-14T10:01:12.280Z,900.00
2019-05-14T10:02:12.289Z,3583.13
2019-05-14T10:03:12.297Z,2525.63
2019-05-14T10:04:12.305Z,765.00
2019-05-14T10:05:12.328Z,703.13
2019-05-14T10:06:12.323Z,3172.50
2019-05-14T10:07:15.511Z,1012.50
2019-05-14T10:08:12.336Z,2953.13
2019-05-14T10:09:12.340Z,2874.38
2019-05-14T10:10:12.348Z,2818.13
2019-05-14T10:11:12.370Z,2823.75
2019-05-14T10:12:12.364Z,2885.63
2019-05-14T10:13:12.379Z,2908.13
2019-05-14T10:14:12.384Z,2840.63
2019-05-14T10:15:12.390Z,2846.25
2019-05-14T10:16:12.396Z,877.50
2019-05-14T10:17:12.401Z,894.38
2019-05-14T10:18:12.732Z,2874.38
2019-05-14T10:19:12.420Z,1068.75
2019-05-14T10:20:12.426Z,736.88
2019-05-14T10:21:12.439Z,3065.63
2019-05-14T10:22:12.444Z,3571.88
2019-05-14T10:23:12.451Z,1929.38
2019-05-14T10:24:12.458Z,1119.38
2019-05-14T10:25:12.465Z,1023.75
2019-05-14T10:26:12.474Z,838.13
2019-05-14T10:27:12.480Z,4550.63
2019-05-14T10:28:12.487Z,613.13
2019-05-14T10:29:12.487Z,3751.88
2019-05-14T10:30:12.495Z,883.13
2019-05-14T10:31:13.467Z,5180.63
2019-05-14T10:32:12.507Z,5253.75
2019-05-14T10:33:15.063Z,4910.63
2019-05-14T10:34:12.526Z,1035.00
2019-05-14T10:35:12.536Z,810.00
2019-05-14T10:36:12.541Z,675.00
2019-05-14T10:37:12.545Z,5574.38
2019-05-14T10:38:12.552Z,1215.00
2019-05-14T10:39:12.560Z,1462.50
2019-05-14T10:40:12.566Z,753.75
2019-05-14T10:41:12.567Z,630.00
2019-05-14T10:42:12.572Z,618.75
2019-05-14T10:43:12.576Z,663.75
2019-05-14T10:44:12.580Z,5416.88
2019-05-14T10:45:13.171Z,5501.25
2019-05-14T10:46:12.595Z,5574.38
2019-05-14T10:47:12.601Z,5523.75
2019-05-14T10:48:12.604Z,5670.00
2019-05-14T10:49:22.605Z,5827.50
2019-05-14T10:50:13.911Z,5996.25
2019-05-14T10:51:12.619Z,5827.50
2019-05-14T10:52:12.621Z,5771.25
2019-05-14T10:53:12.636Z,5945.63
2019-05-14T10:54:22.393Z,5956.88
2019-05-14T10:55:12.641Z,4944.38
2019-05-14T10:56:12.645Z,1518.75
2019-05-14T10:57:12.657Z,748.13
2019-05-14T10:58:12.665Z,843.75
2019-05-14T10:59:12.667Z,787.50
2019-05-14T11:00:12.701Z,1631.25
2019-05-14T11:01:12.674Z,5911.88
2019-05-14T11:02:12.683Z,5962.50
2019-05-14T11:03:12.688Z,5630.63
2019-05-14T11:04:12.695Z,5490.00
2019-05-14T11:05:12.705Z,5776.88
2019-05-14T11:06:12.710Z,5850.00
2019-05-14T11:07:12.723Z,5636.25
2019-05-14T11:08:12.734Z,4826.25
2019-05-14T11:09:12.728Z,5816.25
2019-05-14T11:10:12.736Z,5844.38
2019-05-14T11:11:12.746Z,6041.25
2019-05-14T11:12:12.753Z,5799.38
2019-05-14T11:13:12.755Z,2115.00
2019-05-14T11:14:12.764Z,5484.38
2019-05-14T11:15:12.775Z,5259.38
2019-05-14T11:16:12.774Z,933.75
2019-05-14T11:17:12.792Z,2671.88
2019-05-14T11:18:12.795Z,3943.13
2019-05-14T11:19:12.804Z,1569.38
2019-05-14T11:20:12.821Z,815.63
2019-05-14T11:21:24.993Z,697.50
2019-05-14T11:22:12.821Z,731.25
2019-05-14T11:23:12.825Z,725.63
2019-05-14T11:24:12.829Z,731.25
2019-05-14T11:25:12.842Z,630.00
2019-05-14T11:26:12.846Z,646.88
2019-05-14T11:27:12.846Z,646.88
2019-05-14T11:28:12.850Z,618.75
2019-05-14T11:29:12.859Z,635.63
2019-05-14T11:30:12.868Z,691.88
2019-05-14T11:31:12.871Z,765.00
2019-05-14T11:32:12.875Z,883.13
2019-05-14T11:33:12.875Z,765.00
2019-05-14T11:34:12.878Z,888.75
2019-05-14T11:35:13.248Z,793.13
2019-05-14T11:36:12.887Z,720.00
2019-05-14T11:37:12.892Z,641.25
2019-05-14T11:38:28.795Z,630.00
2019-05-14T11:39:12.895Z,630.00
2019-05-14T11:40:12.897Z,652.50
2019-05-14T11:41:12.894Z,551.25
2019-05-14T11:42:12.899Z,568.13
2019-05-14T11:43:12.904Z,686.25
2019-05-14T11:44:12.904Z,736.88
2019-05-14T11:45:12.900Z,545.63
2019-05-14T11:46:12.911Z,455.63
2019-05-14T11:47:12.911Z,551.25
2019-05-14T11:48:12.908Z,607.50
2019-05-14T11:49:12.911Z,720.00
2019-05-14T11:50:12.925Z,742.50
2019-05-14T11:51:12.916Z,708.75
2019-05-14T11:52:13.008Z,646.88
2019-05-14T11:53:12.914Z,551.25
2019-05-14T11:54:12.911Z,590.63
2019-05-14T11:55:12.908Z,562.50
2019-05-14T11:56:12.908Z,540.00
2019-05-14T11:57:12.911Z,579.38
2019-05-14T11:58:12.916Z,748.13
2019-05-14T11:59:12.906Z,810.00
2019-05-14T12:00:12.905Z,770.63
2019-05-14T12:01:12.911Z,652.50
2019-05-14T12:02:12.908Z,556.88
2019-05-14T12:03:12.910Z,607.50
2019-05-14T12:04:12.911Z,523.13
2019-05-14T12:05:12.906Z,545.63
2019-05-14T12:06:12.910Z,478.13
2019-05-14T12:07:12.905Z,495.00
2019-05-14T12:08:12.904Z,534.38
2019-05-14T12:09:12.906Z,573.75
2019-05-14T12:10:12.906Z,478.13
2019-05-14T12:11:12.904Z,376.88
2019-05-14T12:12:12.970Z,444.38
2019-05-14T12:13:12.898Z,405.00
2019-05-14T12:14:12.895Z,354.38
2019-05-14T12:15:12.900Z,416.25
2019-05-14T12:16:12.899Z,421.88
2019-05-14T12:17:12.893Z,427.50
2019-05-14T12:18:12.897Z,427.50
2019-05-14T12:19:12.899Z,433.13
2019-05-14T12:20:12.892Z,438.75
2019-05-14T12:21:12.895Z,450.00
2019-05-14T12:22:13.025Z,466.88
2019-05-14T12:23:12.891Z,450.00
2019-05-14T12:24:13.845Z,444.38
2019-05-14T12:25:12.886Z,438.75
2019-05-14T12:26:12.891Z,438.75
2019-05-14T12:27:12.880Z,455.63
2019-05-14T12:28:13.817Z,444.38
2019-05-14T12:29:12.879Z,421.88
2019-05-14T12:30:12.878Z,416.25
2019-05-14T12:31:12.872Z,405.00
2019-05-14T12:32:13.246Z,382.50
2019-05-14T12:33:12.874Z,376.88